Time;durP1;ratioP1;P1;durP2;ratioP2;P2;SDS_P1;SDS_P2;PMS_P1;PMS_P2;Temp;Humidity;BMP_temperature;BMP_pressure;BME280_temperature;BME280_humidity;BME280_pressure;Samples;Min_cycle;Max_cycle;Signal;HPM_P1;HPM_P2
2021/03/22 00:00:54;;;;;;;27.75;4.32;;;5.50;99.90;;;;;;4969357;28;20070;-86
2021/03/22 00:03:22;;;;;;;51.80;6.03;;;5.50;99.90;;;;;;4970151;28;20078;-86
2021/03/22 00:05:49;;;;;;;23.40;3.63;;;5.50;99.90;;;;;;4971711;28;20041;-86
2021/03/22 00:08:16;;;;;;;21.88;4.88;;;5.60;99.90;;;;;;4989391;28;20398;-85
2021/03/22 00:10:44;;;;;;;23.23;4.55;;;5.60;99.90;;;;;;4973878;28;20537;-86
2021/03/22 00:13:12;;;;;;;33.28;5.55;;;5.60;99.90;;;;;;4984232;28;20054;-86
2021/03/22 00:15:39;;;;;;;38.72;6.05;;;5.60;99.90;;;;;;4968571;28;20501;-86
2021/03/22 00:18:07;;;;;;;33.15;4.22;;;5.60;99.90;;;;;;4973733;28;20046;-86
2021/03/22 00:20:33;;;;;;;31.30;5.85;;;5.70;99.90;;;;;;4986224;28;20081;-86
2021/03/22 00:22:59;;;;;;;30.42;4.22;;;5.60;99.90;;;;;;4968675;28;20054;-87
2021/03/22 00:25:25;;;;;;;37.35;5.55;;;5.60;99.90;;;;;;4978849;28;20038;-86
2021/03/22 00:27:51;;;;;;;18.40;4.45;;;5.60;99.90;;;;;;4989312;28;20035;-86
2021/03/22 00:30:31;;;;;;;26.38;5.18;;;5.60;99.90;;;;;;4955093;28;20050;-86
2021/03/22 00:32:57;;;;;;;30.17;5.85;;;5.60;99.90;;;;;;4976601;28;20042;-87
2021/03/22 00:35:23;;;;;;;39.30;5.15;;;5.70;99.90;;;;;;4981143;28;20063;-87
2021/03/22 00:37:50;;;;;;;38.33;5.78;;;5.80;99.90;;;;;;4978871;28;20047;-86
2021/03/22 00:40:17;;;;;;;19.88;3.50;;;5.70;99.90;;;;;;4979479;28;20671;-86
2021/03/22 00:42:43;;;;;;;40.08;4.22;;;5.70;99.90;;;;;;4977876;28;20046;-86
2021/03/22 00:45:11;;;;;;;28.02;4.68;;;5.70;99.90;;;;;;4982390;28;20498;-86
2021/03/22 00:47:37;;;;;;;28.10;5.25;;;5.70;99.90;;;;;;4978066;28;20046;-86
2021/03/22 00:50:05;;;;;;;29.25;3.70;;;5.70;99.90;;;;;;4996739;28;20038;-86
2021/03/22 00:52:31;;;;;;;28.90;4.60;;;5.70;99.90;;;;;;4978849;28;20035;-86
2021/03/22 00:54:57;;;;;;;42.63;5.68;;;5.70;99.90;;;;;;4979121;28;20046;-89
2021/03/22 00:57:23;;;;;;;44.50;6.22;;;5.70;99.90;;;;;;4964816;28;20122;-85
2021/03/22 00:59:48;;;;;;;36.45;4.82;;;5.70;99.90;;;;;;4977517;28;20402;-86
2021/03/22 01:02:14;;;;;;;23.02;4.22;;;5.70;99.90;;;;;;4958814;28;20066;-85
2021/03/22 01:04:41;;;;;;;32.08;4.10;;;5.60;99.90;;;;;;4957591;28;20046;-87
2021/03/22 01:07:06;;;;;;;30.58;5.07;;;5.70;99.90;;;;;;4976159;28;20073;-86
2021/03/22 01:09:32;;;;;;;27.38;3.97;;;5.70;99.90;;;;;;4970134;28;20077;-87
2021/03/22 01:11:58;;;;;;;19.25;3.38;;;5.70;99.90;;;;;;4956832;28;20058;-88
2021/03/22 01:14:24;;;;;;;42.17;5.65;;;5.70;99.90;;;;;;4970721;28;20054;-87
2021/03/22 01:16:50;;;;;;;22.75;4.55;;;5.70;99.90;;;;;;4955586;28;20038;-87
2021/03/22 01:19:23;;;;;;;25.95;4.75;;;5.70;99.90;;;;;;4971703;28;20162;-87
2021/03/22 01:21:52;;;;;;;24.52;4.50;;;5.80;99.90;;;;;;4959856;28;20117;-87
2021/03/22 01:24:21;;;;;;;32.20;5.30;;;5.70;99.90;;;;;;4954826;28;20053;-86
2021/03/22 01:26:49;;;;;;;28.90;4.75;;;5.70;99.90;;;;;;4969789;28;20484;-86
2021/03/22 01:29:36;;;;;;;30.42;4.88;;;5.60;99.90;;;;;;4954667;28;20065;-85
2021/03/22 01:32:08;;;;;;;23.85;4.47;;;5.70;99.90;;;;;;4954964;28;20127;-89
2021/03/22 01:34:34;;;;;;;34.08;5.32;;;5.70;99.90;;;;;;4954939;28;20130;-86
2021/03/22 01:37:00;;;;;;;30.48;4.18;;;5.70;99.90;;;;;;4953957;28;20461;-87
2021/03/22 01:39:29;;;;;;;36.33;4.80;;;5.70;99.90;;;;;;4970365;28;20050;-86
2021/03/22 01:41:58;;;;;;;43.25;4.57;;;5.70;99.90;;;;;;4950963;28;20043;-86
2021/03/22 01:44:26;;;;;;;44.47;5.38;;;5.70;99.90;;;;;;4961478;28;20043;-86
2021/03/22 01:46:58;;;;;;;33.42;4.97;;;5.70;99.90;;;;;;4953792;28;20070;-86
2021/03/22 01:49:28;;;;;;;37.03;4.72;;;5.70;99.90;;;;;;4951576;28;20045;-87
2021/03/22 01:51:56;;;;;;;40.30;4.75;;;5.70;99.90;;;;;;4974790;28;20034;-87
2021/03/22 01:54:22;;;;;;;22.05;4.00;;;5.70;99.90;;;;;;4949264;28;20625;-85
2021/03/22 01:56:51;;;;;;;25.13;3.67;;;5.80;99.90;;;;;;4954501;28;20047;-86
2021/03/22 01:59:23;;;;;;;20.00;2.38;;;5.70;99.90;;;;;;4983524;28;20054;-86
2021/03/22 02:01:53;;;;;;;18.35;2.80;;;5.70;99.90;;;;;;4954911;28;20073;-88
2021/03/22 02:04:19;;;;;;;22.42;3.28;;;5.70;99.90;;;;;;4954955;28;20046;-86
2021/03/22 02:06:47;;;;;;;28.42;3.60;;;5.70;99.90;;;;;;4959717;28;20050;-87
2021/03/22 02:09:13;;;;;;;27.50;3.35;;;5.70;99.90;;;;;;4976564;28;20047;-86
2021/03/22 02:11:39;;;;;;;18.85;2.95;;;5.70;99.90;;;;;;4979381;28;20528;-85
2021/03/22 02:14:08;;;;;;;25.92;3.60;;;5.60;99.90;;;;;;4951963;28;20040;-88
2021/03/22 02:16:57;;;;;;;31.33;3.77;;;5.60;99.90;;;;;;4954647;28;20039;-86
2021/03/22 02:19:48;;;;;;;28.77;4.35;;;5.60;99.90;;;;;;4973355;28;20203;-86
2021/03/22 02:22:36;;;;;;;33.75;4.38;;;5.60;99.90;;;;;;4963599;28;20487;-86
2021/03/22 02:25:12;;;;;;;23.23;3.45;;;5.50;99.90;;;;;;4969795;28;20047;-86
2021/03/22 02:27:57;;;;;;;22.52;3.88;;;5.50;99.90;;;;;;4970269;28;20057;-87
2021/03/22 02:30:22;;;;;;;34.53;3.35;;;5.60;99.90;;;;;;4982677;28;20051;-86
2021/03/22 02:33:15;;;;;;;23.38;3.47;;;5.40;99.90;;;;;;4969098;28;20384;-86
2021/03/22 02:35:51;;;;;;;23.15;3.10;;;5.50;99.90;;;;;;4970107;28;20053;-86
2021/03/22 02:38:30;;;;;;;26.45;4.05;;;5.50;99.90;;;;;;4969457;28;20078;-87
2021/03/22 02:41:02;;;;;;;20.80;2.40;;;5.40;99.90;;;;;;4971532;28;20043;-86
2021/03/22 02:43:36;;;;;;;30.17;3.83;;;5.40;99.90;;;;;;4969414;28;20050;-86
2021/03/22 02:46:02;;;;;;;27.65;3.10;;;5.50;99.90;;;;;;4967184;28;20039;-86
2021/03/22 02:48:30;;;;;;;26.20;5.15;;;5.50;99.90;;;;;;4948580;28;20589;-87
2021/03/22 02:51:24;;;;;;;29.25;3.92;;;5.40;99.90;;;;;;4966954;28;20153;-86
2021/03/22 02:54:22;;;;;;;14.75;2.80;;;5.50;99.90;;;;;;4939216;28;20051;-87
2021/03/22 02:56:59;;;;;;;28.27;2.97;;;5.50;99.90;;;;;;4972642;28;20051;-87
2021/03/22 02:59:35;;;;;;;24.13;3.90;;;5.40;99.90;;;;;;4973227;28;20047;-86
2021/03/22 03:02:04;;;;;;;27.25;2.92;;;5.50;99.90;;;;;;4967963;28;20070;-86
2021/03/22 03:04:35;;;;;;;28.70;3.28;;;5.40;99.90;;;;;;4970092;28;20553;-86
2021/03/22 03:07:04;;;;;;;;;;;5.40;99.90;;;;;;4970953;28;20042;-86
2021/03/22 03:09:37;;;;;;;15.93;2.83;;;5.40;99.90;;;;;;4984661;28;19925;-86
2021/03/22 03:12:25;;;;;;;26.00;2.00;;;5.50;99.90;;;;;;4970787;28;20053;-86
2021/03/22 03:14:54;;;;;;;20.42;2.45;;;5.40;99.90;;;;;;4958813;28;20035;-87
2021/03/22 03:17:21;;;;;;;21.52;2.03;;;5.40;99.90;;;;;;4968761;28;20039;-86
2021/03/22 03:19:52;;;;;;;18.88;2.85;;;5.40;99.90;;;;;;4967468;28;20114;-87
2021/03/22 03:22:20;;;;;;;18.25;2.28;;;5.40;99.90;;;;;;4968962;28;20043;-87
2021/03/22 03:24:46;;;;;;;21.30;2.53;;;5.40;99.90;;;;;;4953427;28;20399;-87
2021/03/22 03:27:13;;;;;;;19.05;2.00;;;5.40;99.90;;;;;;4969270;28;20039;-89
2021/03/22 03:29:40;;;;;;;20.85;2.60;;;5.40;99.90;;;;;;4969834;28;20089;-86
2021/03/22 03:32:08;;;;;;;19.20;2.13;;;5.40;99.90;;;;;;4969247;28;20125;-85
2021/03/22 03:34:34;;;;;;;18.92;2.42;;;5.40;99.90;;;;;;4971248;28;20050;-85
2021/03/22 03:37:00;;;;;;;20.15;2.22;;;5.40;99.90;;;;;;4972880;28;20085;-85
2021/03/22 03:39:25;;;;;;;19.63;2.58;;;5.50;99.90;;;;;;4972554;28;20121;-85
2021/03/22 03:41:52;;;;;;;21.60;3.15;;;5.40;99.90;;;;;;4986677;28;20471;-86
2021/03/22 03:44:18;;;;;;;17.38;2.33;;;5.40;99.90;;;;;;4981849;28;20050;-86
2021/03/22 03:46:44;;;;;;;25.05;2.28;;;5.40;99.90;;;;;;4954651;28;20134;-86
2021/03/22 03:49:09;;;;;;;20.02;1.80;;;5.50;99.90;;;;;;4953877;29;20075;-87
2021/03/22 03:51:37;;;;;;;12.95;2.20;;;5.40;99.90;;;;;;4971703;28;20047;-85
2021/03/22 03:54:05;;;;;;;14.55;2.45;;;5.40;99.90;;;;;;4975052;28;20812;-86
2021/03/22 03:56:31;;;;;;;19.92;2.75;;;5.40;99.90;;;;;;4972003;28;20189;-86
2021/03/22 03:58:57;;;;;;;16.80;2.05;;;5.40;99.90;;;;;;4972817;28;20075;-86
2021/03/22 04:01:25;;;;;;;25.27;3.08;;;5.40;99.90;;;;;;4955573;28;20054;-86
2021/03/22 04:03:51;;;;;;;10.00;1.58;;;5.40;99.90;;;;;;4972872;28;20064;-87
2021/03/22 04:06:30;;;;;;;21.33;2.47;;;5.40;99.90;;;;;;4955107;28;20503;-86
2021/03/22 04:09:00;;;;;;;11.35;1.77;;;5.40;99.90;;;;;;4972609;28;20109;-87
2021/03/22 04:11:30;;;;;;;23.63;2.30;;;5.40;99.90;;;;;;4985014;28;20054;-86
2021/03/22 04:13:56;;;;;;;18.98;3.53;;;5.30;99.90;;;;;;4980585;28;20048;-86
2021/03/22 04:16:24;;;;;;;16.75;2.00;;;5.40;99.90;;;;;;4955632;28;20038;-86
2021/03/22 04:18:50;;;;;;;17.63;2.00;;;5.40;99.90;;;;;;4973831;28;20070;-86
2021/03/22 04:21:21;;;;;;;7.63;1.23;;;5.40;99.90;;;;;;4955837;28;20039;-87
2021/03/22 04:23:47;;;;;;;13.07;2.33;;;5.50;99.90;;;;;;4972682;28;20043;-86
2021/03/22 04:26:15;;;;;;;17.83;1.75;;;5.40;99.90;;;;;;4955935;28;20046;-86
2021/03/22 04:28:42;;;;;;;12.80;1.23;;;5.40;99.90;;;;;;4972991;28;20039;-87
2021/03/22 04:31:10;;;;;;;14.40;1.33;;;5.50;99.90;;;;;;4944044;28;20114;-86
2021/03/22 04:33:35;;;;;;;14.13;1.60;;;5.40;99.90;;;;;;4971525;28;20318;-86
2021/03/22 04:36:02;;;;;;;8.23;1.48;;;5.30;99.90;;;;;;4972025;28;20495;-86
2021/03/22 04:38:28;;;;;;;12.27;1.63;;;5.30;99.90;;;;;;4973019;28;20039;-86
2021/03/22 04:40:54;;;;;;;19.83;2.25;;;5.30;99.90;;;;;;4956939;28;20057;-87
2021/03/22 04:43:20;;;;;;;6.43;0.73;;;5.30;99.90;;;;;;4967598;28;20506;-88
2021/03/22 04:45:45;;;;;;;8.48;0.88;;;5.30;99.90;;;;;;4962022;28;20050;-86
2021/03/22 04:48:13;;;;;;;16.88;1.85;;;5.40;99.90;;;;;;4970816;28;20043;-86
2021/03/22 04:50:38;;;;;;;21.92;1.35;;;5.40;99.90;;;;;;4954938;28;20109;-86
2021/03/22 04:53:05;;;;;;;1.55;0.73;;;5.30;99.90;;;;;;4939452;28;20055;-87
2021/03/22 04:55:33;;;;;;;6.72;1.27;;;5.30;99.90;;;;;;4971091;28;20045;-86
2021/03/22 04:57:59;;;;;;;6.93;1.48;;;5.30;99.90;;;;;;4972939;28;20053;-87
2021/03/22 05:00:36;;;;;;;18.90;2.78;;;5.30;99.90;;;;;;4955120;28;20131;-87
2021/03/22 05:03:02;;;;;;;10.93;1.40;;;5.30;99.90;;;;;;4973468;28;20484;-87
2021/03/22 05:05:28;;;;;;;12.52;1.45;;;5.30;99.90;;;;;;4968226;28;20055;-86
2021/03/22 05:07:54;;;;;;;12.32;1.17;;;5.30;99.90;;;;;;4954506;28;20043;-87
2021/03/22 05:10:25;;;;;;;15.35;1.75;;;5.20;99.90;;;;;;4949491;29;20047;-91
2021/03/22 05:12:50;;;;;;;12.73;2.08;;;5.20;99.90;;;;;;4972689;28;20039;-87
2021/03/22 05:15:17;;;;;;;13.32;1.48;;;5.20;99.90;;;;;;4952924;28;20513;-86
2021/03/22 05:17:43;;;;;;;15.52;1.75;;;5.20;99.90;;;;;;4962576;28;20039;-87
2021/03/22 05:20:20;;;;;;;12.13;1.60;;;5.20;99.90;;;;;;4966663;28;20058;-87
2021/03/22 05:22:46;;;;;;;13.25;1.60;;;5.30;99.90;;;;;;4971150;28;20035;-86
2021/03/22 05:25:12;;;;;;;15.18;1.83;;;5.30;99.90;;;;;;4955586;28;20061;-87
2021/03/22 05:27:38;;;;;;;14.43;2.00;;;5.30;99.90;;;;;;4954325;28;20058;-86
2021/03/22 05:30:08;;;;;;;21.05;2.53;;;5.30;99.90;;;;;;4971897;28;20043;-86
2021/03/22 05:32:35;;;;;;;;;;;5.40;99.90;;;;;;4971374;28;20050;-87
2021/03/22 05:35:01;;;;;;;14.50;2.17;;;5.40;99.90;;;;;;4968200;28;19926;-87
2021/03/22 05:37:27;;;;;;;16.27;2.30;;;5.40;99.90;;;;;;4964394;28;20043;-87
2021/03/22 05:39:53;;;;;;;22.75;2.35;;;5.40;99.90;;;;;;4971666;28;20043;-87
2021/03/22 05:42:45;;;;;;;22.45;2.17;;;5.40;99.90;;;;;;4971516;28;20129;-86
2021/03/22 05:45:38;;;;;;;15.68;2.85;;;5.40;99.90;;;;;;4972185;28;20043;-86
2021/03/22 05:48:31;;;;;;;17.95;1.92;;;5.40;99.90;;;;;;4949317;28;20055;-87
2021/03/22 05:51:22;;;;;;;19.23;2.22;;;5.40;99.90;;;;;;4972458;28;20057;-87
2021/03/22 05:54:24;;;;;;;12.63;1.60;;;5.40;99.90;;;;;;4984135;28;20126;-87
2021/03/22 05:57:18;;;;;;;19.75;3.17;;;5.40;99.90;;;;;;4925271;28;20073;-86
2021/03/22 05:59:52;;;;;;;12.70;1.67;;;5.50;99.90;;;;;;4965249;28;20034;-87
2021/03/22 06:02:18;;;;;;;12.30;2.17;;;5.50;99.90;;;;;;4983547;28;20043;-86
2021/03/22 06:04:53;;;;;;;30.17;4.43;;;5.50;99.90;;;;;;4964033;28;20122;-86
2021/03/22 06:07:24;;;;;;;17.13;2.53;;;5.60;99.90;;;;;;4970186;28;20075;-86
2021/03/22 06:10:14;;;;;;;19.02;2.38;;;5.60;99.90;;;;;;4969040;28;20049;-86
2021/03/22 06:12:49;;;;;;;24.98;2.97;;;5.60;99.90;;;;;;4969373;28;20039;-86
2021/03/22 06:15:35;;;;;;;11.00;1.60;;;5.60;99.90;;;;;;4970276;28;20034;-86
2021/03/22 06:18:09;;;;;;;9.90;1.15;;;5.60;99.90;;;;;;4970005;28;20058;-86
2021/03/22 06:20:39;;;;;;;9.68;1.60;;;5.60;99.90;;;;;;4982454;28;20059;-86
2021/03/22 06:23:26;;;;;;;13.38;2.63;;;5.70;99.90;;;;;;4971251;28;20085;-87
2021/03/22 06:25:52;;;;;;;10.70;1.75;;;5.70;99.90;;;;;;4983308;28;20059;-86
2021/03/22 06:28:19;;;;;;;10.10;2.22;;;5.70;99.90;;;;;;4969564;28;20043;-86
2021/03/22 06:31:06;;;;;;;15.20;1.48;;;5.70;99.90;;;;;;4969007;28;20046;-86
2021/03/22 06:33:39;;;;;;;20.42;1.77;;;5.70;99.90;;;;;;4970655;28;20070;-88
2021/03/22 06:36:07;;;;;;;13.50;1.70;;;5.80;99.90;;;;;;4980706;28;20043;-87
2021/03/22 06:38:33;;;;;;;8.63;1.40;;;5.80;99.90;;;;;;4969052;28;20034;-87
2021/03/22 06:41:19;;;;;;;20.02;2.33;;;5.80;99.90;;;;;;4970594;28;20110;-86
2021/03/22 06:43:53;;;;;;;13.05;1.92;;;5.70;99.90;;;;;;4968765;28;20122;-86
2021/03/22 06:46:18;;;;;;;13.00;3.13;;;5.80;99.90;;;;;;4969450;28;20392;-86
2021/03/22 06:49:06;;;;;;;12.02;1.55;;;5.80;99.90;;;;;;4953156;28;20045;-86
2021/03/22 06:51:32;;;;;;;10.98;1.60;;;5.80;99.90;;;;;;4969692;28;20042;-88
2021/03/22 06:54:00;;;;;;;16.13;1.75;;;5.80;99.90;;;;;;4970121;28;20050;-87
2021/03/22 06:56:39;;;;;;;13.35;1.85;;;5.80;99.90;;;;;;4969496;28;20058;-86
2021/03/22 06:59:10;;;;;;;12.10;1.45;;;5.80;99.90;;;;;;4968847;28;20045;-86
2021/03/22 07:01:36;;;;;;;;;;;5.90;99.90;;;;;;4985055;28;20047;-86
2021/03/22 07:04:15;;;;;;;4.88;1.73;;;5.80;99.90;;;;;;4970712;28;19929;-87
2021/03/22 07:06:40;;;;;;;12.77;2.30;;;5.80;99.90;;;;;;4967521;28;20451;-87
2021/03/22 07:09:06;;;;;;;13.50;3.25;;;5.90;99.90;;;;;;4957484;28;20047;-85
2021/03/22 07:11:34;;;;;;;11.90;1.70;;;5.80;99.90;;;;;;4965392;28;20404;-87
2021/03/22 07:14:03;;;;;;;11.32;1.50;;;5.80;99.90;;;;;;4975681;28;20051;-87
2021/03/22 07:16:32;;;;;;;15.30;2.00;;;5.90;99.90;;;;;;4970343;28;20388;-86
2021/03/22 07:19:14;;;;;;;11.93;1.85;;;5.80;99.90;;;;;;4975362;28;20466;-85
2021/03/22 07:21:49;;;;;;;16.77;2.58;;;5.80;99.90;;;;;;4976799;28;20162;-87
2021/03/22 07:24:48;;;;;;;7.20;1.33;;;5.80;99.90;;;;;;4960122;28;20487;-87
2021/03/22 07:27:39;;;;;;;15.18;2.20;;;5.90;99.90;;;;;;4973252;28;20043;-87
2021/03/22 07:30:10;;;;;;;20.95;2.35;;;5.90;99.90;;;;;;4963615;28;20066;-87
2021/03/22 07:32:49;;;;;;;20.23;1.58;;;6.00;99.90;;;;;;4968788;28;20053;-87
2021/03/22 07:35:33;;;;;;;13.52;1.60;;;6.00;99.90;;;;;;4977338;28;20112;-87
2021/03/22 07:38:13;;;;;;;12.82;1.67;;;6.00;99.90;;;;;;4959603;28;20078;-86
2021/03/22 07:40:53;;;;;;;17.48;2.10;;;6.10;99.90;;;;;;4977030;28;20039;-87
2021/03/22 07:43:41;;;;;;;11.35;1.95;;;6.10;99.90;;;;;;4971469;28;20121;-86
2021/03/22 07:46:13;;;;;;;15.40;2.00;;;6.10;99.90;;;;;;4970081;28;20047;-87
2021/03/22 07:48:44;;;;;;;14.93;1.73;;;6.10;99.90;;;;;;4948292;28;20125;-87
2021/03/22 07:51:32;;;;;;;15.48;1.80;;;6.10;99.90;;;;;;4976136;28;20046;-86
2021/03/22 07:54:26;;;;;;;25.02;2.63;;;6.00;99.90;;;;;;4959774;28;20046;-86
2021/03/22 07:57:10;;;;;;;21.38;2.22;;;6.00;99.90;;;;;;4969784;28;20042;-87
2021/03/22 08:00:11;;;;;;;14.45;1.75;;;6.00;99.90;;;;;;4952623;28;20042;-88
2021/03/22 08:02:46;;;;;;;11.32;1.75;;;6.00;99.90;;;;;;4959258;28;20049;-89
2021/03/22 08:05:35;;;;;;;8.82;1.45;;;6.10;99.90;;;;;;4961560;28;20046;-87
2021/03/22 08:08:30;;;;;;;5.22;1.15;;;6.20;99.90;;;;;;4969766;28;20043;-86
2021/03/22 08:11:06;;;;;;;15.63;1.60;;;6.30;99.90;;;;;;4958308;28;20491;-87
2021/03/22 08:13:41;;;;;;;7.50;1.13;;;6.40;99.90;;;;;;4958796;28;20077;-87
2021/03/22 08:16:43;;;;;;;3.75;0.98;;;6.40;99.90;;;;;;4976000;28;20039;-86
2021/03/22 08:19:34;;;;;;;17.38;1.65;;;6.50;99.90;;;;;;4955611;28;20055;-87
2021/03/22 08:22:13;;;;;;;17.08;1.70;;;6.60;99.90;;;;;;4936598;29;20044;-87
2021/03/22 08:24:53;;;;;;;16.15;1.58;;;6.60;99.90;;;;;;4935611;29;20056;-89
2021/03/22 08:27:22;;;;;;;10.85;1.25;;;6.70;99.90;;;;;;4935424;29;20043;-85
2021/03/22 08:30:06;;;;;;;13.32;1.50;;;6.70;99.90;;;;;;4936161;28;20430;-85
2021/03/22 08:32:37;;;;;;;9.60;1.45;;;6.80;99.90;;;;;;4933323;29;20042;-85
2021/03/22 08:35:40;;;;;;;6.72;1.15;;;6.80;99.90;;;;;;4933937;29;20510;-84
2021/03/22 08:38:29;;;;;;;15.10;2.53;;;6.80;99.90;;;;;;4918971;28;20411;-86
2021/03/22 08:40:58;;;;;;;14.45;1.52;;;6.80;99.90;;;;;;4935516;29;20042;-86
2021/03/22 08:43:45;;;;;;;1.80;0.45;;;6.90;99.90;;;;;;4931670;29;20054;-86
2021/03/22 08:46:37;;;;;;;7.95;1.10;;;6.80;99.90;;;;;;4952009;28;20051;-86
2021/03/22 08:49:19;;;;;;;6.60;0.93;;;6.80;99.90;;;;;;4941642;28;20130;-86
2021/03/22 08:51:46;;;;;;;11.98;1.15;;;6.90;99.90;;;;;;4952284;28;20039;-87
2021/03/22 08:54:25;;;;;;;11.82;1.42;;;6.90;99.90;;;;;;4935984;28;20069;-85
2021/03/22 08:57:02;;;;;;;14.43;1.50;;;7.00;99.90;;;;;;4931499;29;20032;-86
2021/03/22 08:59:28;;;;;;;20.38;1.85;;;7.10;99.90;;;;;;4938466;28;20054;-86
2021/03/22 09:02:19;;;;;;;11.73;2.08;;;7.20;99.90;;;;;;4919177;28;20062;-86
2021/03/22 09:04:45;;;;;;;12.32;2.83;;;7.30;99.90;;;;;;4951911;28;20120;-86
2021/03/22 09:07:11;;;;;;;17.95;2.42;;;7.40;99.90;;;;;;4921970;29;20132;-86
2021/03/22 09:09:42;;;;;;;20.60;3.00;;;7.40;99.90;;;;;;4933437;29;20047;-86
2021/03/22 09:12:42;;;;;;;22.45;2.28;;;7.30;99.90;;;;;;4940933;29;20914;-86
2021/03/22 09:15:21;;;;;;;13.40;1.95;;;7.40;99.90;;;;;;4926289;29;20720;-86
2021/03/22 09:17:49;;;;;;;13.00;2.03;;;7.50;99.90;;;;;;4933922;29;20047;-87
2021/03/22 09:20:28;;;;;;;16.85;1.70;;;7.40;99.90;;;;;;4950609;28;20073;-86
2021/03/22 09:23:18;;;;;;;16.20;1.85;;;7.50;99.90;;;;;;4972948;28;20046;-86
2021/03/22 09:25:48;;;;;;;23.65;2.50;;;7.40;99.90;;;;;;4975388;28;20454;-87
2021/03/22 09:28:39;;;;;;;22.15;2.85;;;7.50;99.90;;;;;;4978086;28;20050;-86
2021/03/22 09:31:17;;;;;;;16.90;2.15;;;7.60;99.90;;;;;;4975055;28;20051;-86
2021/03/22 09:34:14;;;;;;;18.70;2.35;;;7.60;99.90;;;;;;4982615;28;20050;-86
2021/03/22 09:36:48;;;;;;;14.32;2.13;;;7.80;99.90;;;;;;4980740;28;20395;-87
2021/03/22 09:39:19;;;;;;;16.15;2.83;;;7.80;99.90;;;;;;4978315;28;20438;-87
2021/03/22 09:42:13;;;;;;;18.38;2.03;;;7.90;99.90;;;;;;4970464;28;20054;-87
2021/03/22 09:44:54;;;;;;;15.75;1.55;;;7.90;99.90;;;;;;4995197;28;20050;-87
2021/03/22 09:47:23;;;;;;;17.90;2.33;;;8.00;99.90;;;;;;4975055;28;20043;-86
2021/03/22 09:50:01;;;;;;;9.93;1.98;;;8.00;99.90;;;;;;4981659;28;20066;-87
2021/03/22 09:52:45;;;;;;;11.48;1.77;;;8.10;99.90;;;;;;4978163;28;20069;-86
2021/03/22 09:55:26;;;;;;;17.48;2.15;;;8.10;99.90;;;;;;4996770;28;20050;-86
2021/03/22 09:58:19;;;;;;;7.20;1.50;;;8.30;99.90;;;;;;4979688;28;20914;-87
2021/03/22 10:00:59;;;;;;;12.32;1.85;;;8.30;99.90;;;;;;4966169;28;20034;-87
2021/03/22 10:03:30;;;;;;;3.88;0.93;;;8.20;99.90;;;;;;4980959;28;20050;-88
2021/03/22 10:06:03;;;;;;;8.93;1.23;;;8.20;99.90;;;;;;4982228;28;20043;-89
2021/03/22 10:08:34;;;;;;;10.18;1.67;;;8.20;99.90;;;;;;4968891;28;20050;-87
2021/03/22 10:11:19;;;;;;;19.33;2.15;;;8.30;99.90;;;;;;4966664;28;20089;-88
2021/03/22 10:13:47;;;;;;;17.33;1.60;;;8.30;99.90;;;;;;4962025;28;20061;-87
2021/03/22 10:16:24;;;;;;;16.13;1.92;;;8.20;99.90;;;;;;4973058;28;20104;-88
2021/03/22 10:18:57;;;;;;;12.70;2.10;;;8.20;99.90;;;;;;4980591;28;20119;-87
2021/03/22 10:21:28;;;;;;;38.47;3.83;;;8.20;99.90;;;;;;4971269;28;20046;-88
2021/03/22 10:24:20;;;;;;;9.55;1.08;;;8.10;99.90;;;;;;4986525;28;20038;-89
2021/03/22 10:26:49;;;;;;;14.13;2.00;;;8.40;99.90;;;;;;4940018;28;20514;-88
2021/03/22 10:29:21;;;;;;;10.45;1.58;;;8.60;99.90;;;;;;4967314;28;20048;-88
2021/03/22 10:32:02;;;;;;;15.75;1.58;;;8.70;99.90;;;;;;4973019;28;20039;-89
2021/03/22 10:35:03;;;;;;;16.35;1.60;;;8.80;99.90;;;;;;4983337;28;20042;-87
2021/03/22 10:37:33;;;;;;;10.88;1.70;;;8.80;99.90;;;;;;4954667;28;20450;-88
2021/03/22 10:40:05;;;;;;;11.80;2.15;;;8.50;99.90;;;;;;4968520;28;20045;-88
2021/03/22 10:42:33;;;;;;;17.13;2.75;;;8.40;99.90;;;;;;4981375;28;20070;-88
2021/03/22 10:44:59;;;;;;;11.73;1.95;;;8.40;99.90;;;;;;4955463;28;20100;-88
2021/03/22 10:47:29;;;;;;;7.07;1.30;;;8.30;99.90;;;;;;4970093;28;20042;-87
2021/03/22 10:50:17;;;;;;;9.20;1.42;;;8.30;99.90;;;;;;4983320;28;20050;-88
2021/03/22 10:52:43;;;;;;;11.90;2.55;;;8.10;99.90;;;;;;4980867;28;20045;-88
2021/03/22 10:55:25;;;;;;;17.88;2.38;;;8.10;99.90;;;;;;4949590;28;20549;-88
2021/03/22 10:57:51;;;;;;;13.20;2.03;;;8.10;99.90;;;;;;4981862;28;20046;-88
2021/03/22 11:00:46;;;;;;;8.90;1.75;;;8.10;99.90;;;;;;4951346;28;20166;-88
2021/03/22 11:03:24;;;;;;;15.00;1.80;;;8.00;99.90;;;;;;4963909;28;20486;-88
2021/03/22 11:05:54;;;;;;;13.00;2.03;;;7.90;99.90;;;;;;4961416;28;20038;-87
2021/03/22 11:08:26;;;;;;;16.70;3.70;;;7.90;99.90;;;;;;4964749;28;20117;-89
2021/03/22 11:11:13;;;;;;;8.55;1.50;;;7.90;99.90;;;;;;4965366;28;20049;-88
2021/03/22 11:13:44;;;;;;;9.13;1.60;;;8.00;99.90;;;;;;4936065;28;20573;-88
2021/03/22 11:16:28;;;;;;;13.77;1.80;;;8.10;99.90;;;;;;4949015;28;20043;-87
2021/03/22 11:18:56;;;;;;;11.65;1.90;;;8.20;99.90;;;;;;4946954;28;20053;-88
2021/03/22 11:21:26;;;;;;;11.50;1.92;;;8.20;99.90;;;;;;4956238;28;20550;-89
2021/03/22 11:23:56;;;;;;;6.18;1.27;;;8.50;99.90;;;;;;4953372;28;20058;-88
2021/03/22 11:26:27;;;;;;;;;;;8.80;99.90;;;;;;4952576;28;20043;-88
2021/03/22 11:29:20;;;;;;;6.03;1.10;;;8.70;99.90;;;;;;4952374;28;19965;-89
2021/03/22 11:31:48;;;;;;;3.60;0.88;;;8.80;99.90;;;;;;4931321;28;20191;-88
2021/03/22 11:34:41;;;;;;;7.53;1.02;;;8.90;99.90;;;;;;4949053;28;20046;-88
2021/03/22 11:37:29;;;;;;;8.52;1.23;;;8.90;99.90;;;;;;4950436;28;20502;-88
2021/03/22 11:40:10;;;;;;;8.05;1.10;;;8.80;99.90;;;;;;4948975;28;20071;-89
2021/03/22 11:42:50;;;;;;;15.50;1.80;;;8.80;99.90;;;;;;4964505;28;20142;-89
2021/03/22 11:45:34;;;;;;;6.72;0.90;;;8.90;99.90;;;;;;4965430;28;20035;-88
2021/03/22 11:48:00;;;;;;;10.27;1.25;;;8.80;99.90;;;;;;4951628;28;20043;-89
2021/03/22 11:50:35;;;;;;;9.52;1.30;;;8.70;99.90;;;;;;4949597;28;20078;-89
2021/03/22 11:53:19;;;;;;;8.38;2.10;;;8.70;99.90;;;;;;4956473;28;20078;-88
2021/03/22 11:55:52;;;;;;;4.97;1.10;;;8.50;99.90;;;;;;4947269;28;20039;-87
2021/03/22 11:58:37;;;;;;;11.73;1.50;;;8.90;99.90;;;;;;4953127;28;20062;-88
2021/03/22 12:01:23;;;;;;;7.90;1.30;;;8.90;99.90;;;;;;4964979;28;20497;-88
2021/03/22 12:04:16;;;;;;;7.53;1.00;;;8.70;99.90;;;;;;4970480;28;20491;-87
2021/03/22 12:06:49;;;;;;;11.40;1.60;;;8.80;99.90;;;;;;4963757;28;20089;-87
2021/03/22 12:09:24;;;;;;;7.28;0.95;;;8.60;99.90;;;;;;4935515;28;20053;-92
2021/03/22 12:11:51;;;;;;;9.90;1.40;;;8.80;99.90;;;;;;4931367;28;20061;-90
2021/03/22 12:14:17;;;;;;;4.75;0.70;;;8.90;99.90;;;;;;4944865;28;20050;-92
2021/03/22 12:16:43;;;;;;;10.85;1.90;;;9.00;99.90;;;;;;4939386;28;20417;-92
2021/03/22 12:19:17;;;;;;;11.40;1.38;;;8.90;99.90;;;;;;4962347;28;20078;-90
2021/03/22 12:21:45;;;;;;;12.35;1.48;;;8.70;99.90;;;;;;4943359;28;20054;-90
2021/03/22 12:24:15;;;;;;;11.70;1.65;;;8.80;99.90;;;;;;4954508;28;20042;-92
2021/03/22 12:26:41;;;;;;;10.07;1.20;;;8.80;99.90;;;;;;4962250;28;20038;-90
2021/03/22 12:29:07;;;;;;;8.55;1.85;;;8.90;99.90;;;;;;4959520;28;20480;-89
2021/03/22 12:31:39;;;;;;;6.97;1.52;;;9.00;99.90;;;;;;4964556;28;20046;-92
2021/03/22 12:34:11;;;;;;;11.25;1.05;;;8.80;99.90;;;;;;4957621;28;20043;-90
2021/03/22 12:36:37;;;;;;;9.45;1.70;;;8.60;99.90;;;;;;4963420;28;20035;-91
2021/03/22 12:39:18;;;;;;;6.93;1.35;;;8.60;99.90;;;;;;4960175;28;20035;-91
2021/03/22 12:41:44;;;;;;;9.82;1.77;;;8.70;99.90;;;;;;4975104;28;20439;-91
2021/03/22 12:44:10;;;;;;;7.15;1.20;;;8.70;99.90;;;;;;4955012;28;20050;-91
2021/03/22 12:46:36;;;;;;;7.45;1.05;;;8.70;99.90;;;;;;4967170;28;20168;-92
2021/03/22 12:49:02;;;;;;;3.72;1.00;;;8.60;99.90;;;;;;4954905;28;20077;-90
2021/03/22 12:51:28;;;;;;;8.95;1.05;;;8.60;99.90;;;;;;4965174;28;20664;-92
2021/03/22 12:53:54;;;;;;;4.80;0.88;;;8.50;99.90;;;;;;4940218;28;20089;-90
2021/03/22 12:56:26;;;;;;;6.28;1.33;;;8.60;99.90;;;;;;4938063;28;20088;-91
2021/03/22 12:58:55;;;;;;;5.63;0.98;;;8.60;99.90;;;;;;4961323;28;20046;-91
2021/03/22 13:01:21;;;;;;;9.43;1.33;;;8.50;99.90;;;;;;4973790;28;21073;-92
2021/03/22 13:03:47;;;;;;;4.90;0.85;;;8.50;99.90;;;;;;4964224;28;20050;-92
2021/03/22 13:06:12;;;;;;;4.35;1.00;;;8.50;99.90;;;;;;4953056;28;20783;-90
2021/03/22 13:08:39;;;;;;;6.20;0.77;;;8.50;99.90;;;;;;4956255;28;20030;-90
2021/03/22 13:11:08;;;;;;;7.05;0.88;;;8.60;99.90;;;;;;4963856;28;20105;-90
2021/03/22 13:13:33;;;;;;;4.43;0.90;;;8.70;99.90;;;;;;4953533;28;20429;-91
2021/03/22 13:16:00;;;;;;;7.90;1.10;;;8.70;99.90;;;;;;4954441;28;20114;-90
2021/03/22 13:18:34;;;;;;;7.68;1.00;;;8.60;99.90;;;;;;4966945;28;20047;-91
2021/03/22 13:21:09;;;;;;;9.48;1.45;;;8.60;99.90;;;;;;4964547;28;20051;-91
2021/03/22 13:23:36;;;;;;;10.65;1.48;;;8.60;99.90;;;;;;4971377;28;20406;-91